sensor_id;sensor_type;location;lat;lon;timestamp;P1;durP1;ratioP1;P2;durP2;ratioP2
30080;SDS011;16902;50.816;12.828;2022-12-18T00:04:40;55.20;;;29.97;;
30080;SDS011;16902;50.816;12.828;2022-12-18T00:09:42;54.43;;;29.87;;
30080;SDS011;16902;50.816;12.828;2022-12-18T00:14:44;51.40;;;28.47;;
30080;SDS011;16902;50.816;12.828;2022-12-18T00:19:46;47.03;;;24.50;;
30080;SDS011;16902;50.816;12.828;2022-12-18T00:24:48;48.27;;;26.30;;
30080;SDS011;16902;50.816;12.828;2022-12-18T00:29:49;55.17;;;28.60;;
30080;SDS011;16902;50.816;12.828;2022-12-18T00:34:51;53.43;;;27.70;;
30080;SDS011;16902;50.816;12.828;2022-12-18T00:39:53;44.60;;;24.60;;
30080;SDS011;16902;50.816;12.828;2022-12-18T00:44:55;58.73;;;29.33;;
30080;SDS011;16902;50.816;12.828;2022-12-18T00:49:57;52.10;;;28.50;;
30080;SDS011;16902;50.816;12.828;2022-12-18T00:54:58;48.67;;;26.73;;
30080;SDS011;16902;50.816;12.828;2022-12-18T01:00:07;52.27;;;27.23;;
30080;SDS011;16902;50.816;12.828;2022-12-18T01:05:11;48.57;;;27.20;;
30080;SDS011;16902;50.816;12.828;2022-12-18T01:10:13;50.20;;;27.27;;
30080;SDS011;16902;50.816;12.828;2022-12-18T01:15:16;41.17;;;25.27;;
30080;SDS011;16902;50.816;12.828;2022-12-18T01:20:18;50.93;;;26.60;;
30080;SDS011;16902;50.816;12.828;2022-12-18T01:25:20;47.73;;;28.73;;
30080;SDS011;16902;50.816;12.828;2022-12-18T01:30:24;46.37;;;26.57;;
30080;SDS011;16902;50.816;12.828;2022-12-18T01:35:27;49.83;;;26.13;;
30080;SDS011;16902;50.816;12.828;2022-12-18T01:40:28;51.50;;;26.60;;
30080;SDS011;16902;50.816;12.828;2022-12-18T01:45:31;45.83;;;25.67;;
30080;SDS011;16902;50.816;12.828;2022-12-18T01:50:35;38.53;;;24.20;;
30080;SDS011;16902;50.816;12.828;2022-12-18T01:55:45;49.00;;;24.13;;
30080;SDS011;16902;50.816;12.828;2022-12-18T02:00:49;44.27;;;22.60;;
30080;SDS011;16902;50.816;12.828;2022-12-18T02:16:43;42.17;;;22.70;;
30080;SDS011;16902;50.816;12.828;2022-12-18T02:27:14;40.47;;;22.53;;
30080;SDS011;16902;50.816;12.828;2022-12-18T02:32:21;46.17;;;22.20;;
30080;SDS011;16902;50.816;12.828;2022-12-18T02:37:28;37.03;;;21.97;;
30080;SDS011;16902;50.816;12.828;2022-12-18T02:42:35;34.87;;;21.57;;
30080;SDS011;16902;50.816;12.828;2022-12-18T02:47:40;39.33;;;22.43;;
30080;SDS011;16902;50.816;12.828;2022-12-18T03:03:29;37.60;;;21.20;;
30080;SDS011;16902;50.816;12.828;2022-12-18T03:08:39;35.97;;;20.20;;
30080;SDS011;16902;50.816;12.828;2022-12-18T03:13:51;38.33;;;21.43;;
30080;SDS011;16902;50.816;12.828;2022-12-18T03:18:59;35.30;;;21.67;;
30080;SDS011;16902;50.816;12.828;2022-12-18T03:24:06;37.43;;;21.40;;
30080;SDS011;16902;50.816;12.828;2022-12-18T03:29:21;36.10;;;21.17;;
30080;SDS011;16902;50.816;12.828;2022-12-18T03:34:32;34.60;;;18.83;;
30080;SDS011;16902;50.816;12.828;2022-12-18T03:39:40;33.20;;;20.33;;
30080;SDS011;16902;50.816;12.828;2022-12-18T03:44:44;31.47;;;19.67;;
30080;SDS011;16902;50.816;12.828;2022-12-18T03:55:19;27.93;;;18.00;;
30080;SDS011;16902;50.816;12.828;2022-12-18T04:00:29;30.30;;;19.60;;
30080;SDS011;16902;50.816;12.828;2022-12-18T04:05:40;25.40;;;16.50;;
30080;SDS011;16902;50.816;12.828;2022-12-18T04:10:46;25.93;;;16.20;;
30080;SDS011;16902;50.816;12.828;2022-12-18T04:15:47;31.87;;;19.13;;
30080;SDS011;16902;50.816;12.828;2022-12-18T04:20:51;25.27;;;16.90;;
30080;SDS011;16902;50.816;12.828;2022-12-18T04:25:54;25.57;;;15.80;;
30080;SDS011;16902;50.816;12.828;2022-12-18T04:31:10;30.07;;;16.17;;
30080;SDS011;16902;50.816;12.828;2022-12-18T04:36:12;26.80;;;16.43;;
30080;SDS011;16902;50.816;12.828;2022-12-18T04:41:14;28.03;;;16.83;;
30080;SDS011;16902;50.816;12.828;2022-12-18T04:46:19;19.37;;;14.53;;
30080;SDS011;16902;50.816;12.828;2022-12-18T04:51:21;24.77;;;15.47;;
30080;SDS011;16902;50.816;12.828;2022-12-18T04:56:26;29.70;;;15.67;;
30080;SDS011;16902;50.816;12.828;2022-12-18T05:01:28;25.10;;;15.93;;
30080;SDS011;16902;50.816;12.828;2022-12-18T05:06:35;25.90;;;14.93;;
30080;SDS011;16902;50.816;12.828;2022-12-18T05:11:37;22.10;;;14.80;;
30080;SDS011;16902;50.816;12.828;2022-12-18T05:16:38;31.33;;;15.93;;
30080;SDS011;16902;50.816;12.828;2022-12-18T05:21:40;20.77;;;15.07;;
30080;SDS011;16902;50.816;12.828;2022-12-18T05:26:42;22.13;;;14.77;;
30080;SDS011;16902;50.816;12.828;2022-12-18T05:31:44;20.33;;;13.83;;
30080;SDS011;16902;50.816;12.828;2022-12-18T05:36:46;22.60;;;15.33;;
30080;SDS011;16902;50.816;12.828;2022-12-18T05:41:48;27.53;;;14.60;;
30080;SDS011;16902;50.816;12.828;2022-12-18T05:46:49;24.00;;;14.70;;
30080;SDS011;16902;50.816;12.828;2022-12-18T05:51:51;20.20;;;14.97;;
30080;SDS011;16902;50.816;12.828;2022-12-18T05:56:52;21.73;;;13.90;;
30080;SDS011;16902;50.816;12.828;2022-12-18T06:01:55;24.60;;;13.27;;
30080;SDS011;16902;50.816;12.828;2022-12-18T06:06:56;17.03;;;12.80;;
30080;SDS011;16902;50.816;12.828;2022-12-18T06:11:58;24.60;;;14.37;;
30080;SDS011;16902;50.816;12.828;2022-12-18T06:17:00;22.17;;;13.93;;
30080;SDS011;16902;50.816;12.828;2022-12-18T06:22:02;24.27;;;14.20;;
30080;SDS011;16902;50.816;12.828;2022-12-18T06:27:03;20.73;;;14.53;;
30080;SDS011;16902;50.816;12.828;2022-12-18T06:32:05;18.90;;;13.67;;
30080;SDS011;16902;50.816;12.828;2022-12-18T06:37:07;21.93;;;13.03;;
30080;SDS011;16902;50.816;12.828;2022-12-18T06:42:08;26.27;;;13.80;;
30080;SDS011;16902;50.816;12.828;2022-12-18T06:47:10;24.37;;;13.57;;
30080;SDS011;16902;50.816;12.828;2022-12-18T06:52:12;17.10;;;12.83;;
30080;SDS011;16902;50.816;12.828;2022-12-18T06:57:13;19.07;;;15.37;;
30080;SDS011;16902;50.816;12.828;2022-12-18T07:02:15;24.13;;;14.30;;
30080;SDS011;16902;50.816;12.828;2022-12-18T07:07:17;29.20;;;19.10;;
30080;SDS011;16902;50.816;12.828;2022-12-18T07:12:19;27.20;;;15.13;;
30080;SDS011;16902;50.816;12.828;2022-12-18T07:17:20;21.10;;;13.90;;
30080;SDS011;16902;50.816;12.828;2022-12-18T07:22:22;24.10;;;14.20;;
30080;SDS011;16902;50.816;12.828;2022-12-18T07:27:24;20.03;;;14.30;;
30080;SDS011;16902;50.816;12.828;2022-12-18T07:32:26;24.00;;;14.07;;
30080;SDS011;16902;50.816;12.828;2022-12-18T07:37:28;21.67;;;13.53;;
30080;SDS011;16902;50.816;12.828;2022-12-18T07:42:29;18.37;;;13.97;;
30080;SDS011;16902;50.816;12.828;2022-12-18T07:47:34;19.70;;;13.67;;
30080;SDS011;16902;50.816;12.828;2022-12-18T07:52:37;16.80;;;13.33;;
30080;SDS011;16902;50.816;12.828;2022-12-18T07:57:39;24.63;;;14.93;;
30080;SDS011;16902;50.816;12.828;2022-12-18T08:03:00;20.03;;;14.30;;
30080;SDS011;16902;50.816;12.828;2022-12-18T08:08:03;22.87;;;13.30;;
30080;SDS011;16902;50.816;12.828;2022-12-18T08:13:04;23.50;;;14.00;;
30080;SDS011;16902;50.816;12.828;2022-12-18T08:18:06;26.40;;;16.03;;
30080;SDS011;16902;50.816;12.828;2022-12-18T08:23:14;22.07;;;13.80;;
30080;SDS011;16902;50.816;12.828;2022-12-18T08:28:16;21.03;;;12.37;;
30080;SDS011;16902;50.816;12.828;2022-12-18T08:33:18;20.70;;;12.40;;
30080;SDS011;16902;50.816;12.828;2022-12-18T08:38:19;19.40;;;14.33;;
30080;SDS011;16902;50.816;12.828;2022-12-18T08:43:21;22.53;;;14.37;;
30080;SDS011;16902;50.816;12.828;2022-12-18T08:48:41;25.97;;;15.60;;
30080;SDS011;16902;50.816;12.828;2022-12-18T08:53:44;26.27;;;16.57;;
30080;SDS011;16902;50.816;12.828;2022-12-18T08:58:45;18.97;;;14.57;;
30080;SDS011;16902;50.816;12.828;2022-12-18T09:03:50;17.10;;;12.90;;
30080;SDS011;16902;50.816;12.828;2022-12-18T09:08:52;19.00;;;13.53;;
30080;SDS011;16902;50.816;12.828;2022-12-18T09:13:54;17.20;;;12.07;;
30080;SDS011;16902;50.816;12.828;2022-12-18T09:18:56;19.60;;;13.60;;
30080;SDS011;16902;50.816;12.828;2022-12-18T09:24:01;19.50;;;13.67;;
30080;SDS011;16902;50.816;12.828;2022-12-18T09:29:03;26.40;;;16.97;;
30080;SDS011;16902;50.816;12.828;2022-12-18T09:34:05;28.40;;;18.30;;
30080;SDS011;16902;50.816;12.828;2022-12-18T09:39:07;22.93;;;15.63;;
30080;SDS011;16902;50.816;12.828;2022-12-18T09:49:14;19.80;;;15.30;;
30080;SDS011;16902;50.816;12.828;2022-12-18T09:54:22;19.73;;;15.30;;
30080;SDS011;16902;50.816;12.828;2022-12-18T09:59:35;22.10;;;18.07;;
30080;SDS011;16902;50.816;12.828;2022-12-18T10:04:41;24.37;;;19.40;;
30080;SDS011;16902;50.816;12.828;2022-12-18T10:09:46;23.90;;;19.37;;
30080;SDS011;16902;50.816;12.828;2022-12-18T10:20:18;20.67;;;14.97;;
30080;SDS011;16902;50.816;12.828;2022-12-18T10:25:29;21.30;;;15.83;;
30080;SDS011;16902;50.816;12.828;2022-12-18T10:30:32;21.07;;;15.90;;
30080;SDS011;16902;50.816;12.828;2022-12-18T10:35:34;23.00;;;17.53;;
30080;SDS011;16902;50.816;12.828;2022-12-18T10:41:22;29.87;;;20.50;;
30080;SDS011;16902;50.816;12.828;2022-12-18T10:46:08;24.63;;;18.93;;
30080;SDS011;16902;50.816;12.828;2022-12-18T10:56:33;22.07;;;17.13;;
30080;SDS011;16902;50.816;12.828;2022-12-18T11:12:00;27.67;;;22.65;;
30080;SDS011;16902;50.816;12.828;2022-12-18T11:17:04;23.23;;;20.05;;
30080;SDS011;16902;50.816;12.828;2022-12-18T11:22:27;23.10;;;20.88;;
30080;SDS011;16902;50.816;12.828;2022-12-18T11:27:30;22.45;;;19.95;;
30080;SDS011;16902;50.816;12.828;2022-12-18T11:32:39;21.98;;;19.85;;
30080;SDS011;16902;50.816;12.828;2022-12-18T11:37:51;33.25;;;25.40;;
30080;SDS011;16902;50.816;12.828;2022-12-18T11:43:02;37.83;;;27.73;;
30080;SDS011;16902;50.816;12.828;2022-12-18T11:48:22;36.88;;;28.38;;
30080;SDS011;16902;50.816;12.828;2022-12-18T11:53:29;47.08;;;35.40;;
30080;SDS011;16902;50.816;12.828;2022-12-18T12:09:45;22.85;;;20.55;;
30080;SDS011;16902;50.816;12.828;2022-12-18T12:19:38;30.85;;;24.10;;
30080;SDS011;16902;50.816;12.828;2022-12-18T12:25:15;27.25;;;24.45;;
30080;SDS011;16902;50.816;12.828;2022-12-18T12:30:22;27.00;;;24.42;;
30080;SDS011;16902;50.816;12.828;2022-12-18T12:35:30;27.58;;;24.75;;
30080;SDS011;16902;50.816;12.828;2022-12-18T12:40:50;25.95;;;23.45;;
30080;SDS011;16902;50.816;12.828;2022-12-18T12:46:04;25.35;;;22.85;;
30080;SDS011;16902;50.816;12.828;2022-12-18T12:51:10;23.02;;;20.70;;
30080;SDS011;16902;50.816;12.828;2022-12-18T12:56:18;18.27;;;16.65;;
30080;SDS011;16902;50.816;12.828;2022-12-18T13:01:25;17.70;;;16.20;;
30080;SDS011;16902;50.816;12.828;2022-12-18T13:06:46;16.38;;;15.07;;
30080;SDS011;16902;50.816;12.828;2022-12-18T13:11:54;15.55;;;14.35;;
30080;SDS011;16902;50.816;12.828;2022-12-18T13:17:35;15.98;;;14.57;;
30080;SDS011;16902;50.816;12.828;2022-12-18T13:22:38;14.80;;;13.50;;
30080;SDS011;16902;50.816;12.828;2022-12-18T13:32:45;17.23;;;15.43;;
30080;SDS011;16902;50.816;12.828;2022-12-18T13:37:54;18.83;;;14.83;;
30080;SDS011;16902;50.816;12.828;2022-12-18T13:42:56;15.67;;;14.07;;
30080;SDS011;16902;50.816;12.828;2022-12-18T13:48:15;16.53;;;13.30;;
30080;SDS011;16902;50.816;12.828;2022-12-18T14:04:52;16.37;;;13.80;;
30080;SDS011;16902;50.816;12.828;2022-12-18T14:09:57;14.47;;;12.97;;
30080;SDS011;16902;50.816;12.828;2022-12-18T14:20:28;17.20;;;14.33;;
30080;SDS011;16902;50.816;12.828;2022-12-18T14:25:34;18.07;;;13.50;;
30080;SDS011;16902;50.816;12.828;2022-12-18T14:30:39;15.20;;;13.60;;
30080;SDS011;16902;50.816;12.828;2022-12-18T14:35:51;17.60;;;13.87;;
30080;SDS011;16902;50.816;12.828;2022-12-18T14:41:02;15.10;;;13.37;;
30080;SDS011;16902;50.816;12.828;2022-12-18T14:51:36;14.83;;;12.07;;
30080;SDS011;16902;50.816;12.828;2022-12-18T14:56:45;16.07;;;12.40;;
30080;SDS011;16902;50.816;12.828;2022-12-18T15:07:02;17.33;;;13.70;;
30080;SDS011;16902;50.816;12.828;2022-12-18T15:12:26;17.50;;;12.40;;
30080;SDS011;16902;50.816;12.828;2022-12-18T15:17:29;17.40;;;13.43;;
30080;SDS011;16902;50.816;12.828;2022-12-18T15:22:35;16.43;;;13.10;;
30080;SDS011;16902;50.816;12.828;2022-12-18T15:27:38;19.33;;;13.03;;
30080;SDS011;16902;50.816;12.828;2022-12-18T15:32:43;22.57;;;13.80;;
30080;SDS011;16902;50.816;12.828;2022-12-18T15:37:46;23.23;;;15.10;;
30080;SDS011;16902;50.816;12.828;2022-12-18T15:42:50;20.80;;;14.43;;
30080;SDS011;16902;50.816;12.828;2022-12-18T15:48:20;23.70;;;15.90;;
30080;SDS011;16902;50.816;12.828;2022-12-18T15:53:24;28.87;;;17.93;;
30080;SDS011;16902;50.816;12.828;2022-12-18T15:58:30;18.73;;;14.60;;
30080;SDS011;16902;50.816;12.828;2022-12-18T16:03:32;20.37;;;14.50;;
30080;SDS011;16902;50.816;12.828;2022-12-18T16:08:34;20.17;;;13.87;;
30080;SDS011;16902;50.816;12.828;2022-12-18T16:13:36;19.03;;;13.07;;
30080;SDS011;16902;50.816;12.828;2022-12-18T16:18:39;18.00;;;12.40;;
30080;SDS011;16902;50.816;12.828;2022-12-18T16:23:41;19.63;;;12.53;;
30080;SDS011;16902;50.816;12.828;2022-12-18T16:28:43;22.57;;;12.63;;
30080;SDS011;16902;50.816;12.828;2022-12-18T16:33:48;18.43;;;10.87;;
30080;SDS011;16902;50.816;12.828;2022-12-18T16:38:50;20.50;;;13.20;;
30080;SDS011;16902;50.816;12.828;2022-12-18T16:43:52;23.53;;;15.07;;
30080;SDS011;16902;50.816;12.828;2022-12-18T16:48:56;21.17;;;14.57;;
30080;SDS011;16902;50.816;12.828;2022-12-18T16:53:59;30.20;;;18.33;;
30080;SDS011;16902;50.816;12.828;2022-12-18T16:59:09;28.70;;;18.90;;
30080;SDS011;16902;50.816;12.828;2022-12-18T17:04:11;28.27;;;18.67;;
30080;SDS011;16902;50.816;12.828;2022-12-18T17:09:14;26.80;;;16.60;;
30080;SDS011;16902;50.816;12.828;2022-12-18T17:14:17;27.80;;;16.80;;
30080;SDS011;16902;50.816;12.828;2022-12-18T17:19:22;25.80;;;16.70;;
30080;SDS011;16902;50.816;12.828;2022-12-18T17:24:25;32.30;;;19.93;;
30080;SDS011;16902;50.816;12.828;2022-12-18T17:29:34;32.20;;;20.00;;
30080;SDS011;16902;50.816;12.828;2022-12-18T17:34:36;46.07;;;27.03;;
30080;SDS011;16902;50.816;12.828;2022-12-18T17:39:38;42.60;;;25.43;;
30080;SDS011;16902;50.816;12.828;2022-12-18T17:44:40;37.23;;;23.33;;
30080;SDS011;16902;50.816;12.828;2022-12-18T17:49:42;36.47;;;22.10;;
30080;SDS011;16902;50.816;12.828;2022-12-18T17:54:44;32.77;;;20.43;;
30080;SDS011;16902;50.816;12.828;2022-12-18T17:59:47;30.73;;;17.80;;
30080;SDS011;16902;50.816;12.828;2022-12-18T18:04:49;95.90;;;42.03;;
30080;SDS011;16902;50.816;12.828;2022-12-18T18:09:50;38.53;;;22.17;;
30080;SDS011;16902;50.816;12.828;2022-12-18T18:14:52;29.73;;;17.30;;
30080;SDS011;16902;50.816;12.828;2022-12-18T18:19:54;30.93;;;18.53;;
30080;SDS011;16902;50.816;12.828;2022-12-18T18:24:55;26.37;;;15.53;;
30080;SDS011;16902;50.816;12.828;2022-12-18T18:29:57;42.70;;;22.83;;
30080;SDS011;16902;50.816;12.828;2022-12-18T18:34:58;69.23;;;33.07;;
30080;SDS011;16902;50.816;12.828;2022-12-18T18:40:00;47.20;;;26.20;;
30080;SDS011;16902;50.816;12.828;2022-12-18T18:45:03;66.03;;;30.90;;
30080;SDS011;16902;50.816;12.828;2022-12-18T18:50:05;86.30;;;36.23;;
30080;SDS011;16902;50.816;12.828;2022-12-18T18:55:07;49.60;;;25.20;;
30080;SDS011;16902;50.816;12.828;2022-12-18T19:00:21;41.70;;;23.30;;
30080;SDS011;16902;50.816;12.828;2022-12-18T19:05:23;28.03;;;16.57;;
30080;SDS011;16902;50.816;12.828;2022-12-18T19:10:24;26.13;;;15.80;;
30080;SDS011;16902;50.816;12.828;2022-12-18T19:15:26;26.23;;;15.27;;
30080;SDS011;16902;50.816;12.828;2022-12-18T19:20:28;50.53;;;24.00;;
30080;SDS011;16902;50.816;12.828;2022-12-18T19:25:30;47.93;;;24.27;;
30080;SDS011;16902;50.816;12.828;2022-12-18T19:30:41;18.97;;;12.47;;
30080;SDS011;16902;50.816;12.828;2022-12-18T19:35:42;16.47;;;12.03;;
30080;SDS011;16902;50.816;12.828;2022-12-18T19:40:45;17.00;;;11.23;;
30080;SDS011;16902;50.816;12.828;2022-12-18T19:45:52;13.60;;;10.43;;
30080;SDS011;16902;50.816;12.828;2022-12-18T19:50:55;13.43;;;10.10;;
30080;SDS011;16902;50.816;12.828;2022-12-18T19:55:57;8.53;;;7.73;;
30080;SDS011;16902;50.816;12.828;2022-12-18T20:00:58;10.50;;;8.40;;
30080;SDS011;16902;50.816;12.828;2022-12-18T20:06:07;8.00;;;7.23;;
30080;SDS011;16902;50.816;12.828;2022-12-18T20:11:14;9.30;;;7.43;;
30080;SDS011;16902;50.816;12.828;2022-12-18T20:16:15;9.37;;;6.93;;
30080;SDS011;16902;50.816;12.828;2022-12-18T20:21:17;7.17;;;5.90;;
30080;SDS011;16902;50.816;12.828;2022-12-18T20:26:19;6.90;;;6.30;;
30080;SDS011;16902;50.816;12.828;2022-12-18T20:31:21;9.57;;;8.77;;
30080;SDS011;16902;50.816;12.828;2022-12-18T20:36:24;8.70;;;8.10;;
30080;SDS011;16902;50.816;12.828;2022-12-18T20:41:28;9.73;;;8.93;;
30080;SDS011;16902;50.816;12.828;2022-12-18T20:46:39;9.50;;;8.77;;
30080;SDS011;16902;50.816;12.828;2022-12-18T20:51:40;10.93;;;10.02;;
30080;SDS011;16902;50.816;12.828;2022-12-18T20:56:42;11.13;;;10.33;;
30080;SDS011;16902;50.816;12.828;2022-12-18T21:01:43;10.67;;;9.67;;
30080;SDS011;16902;50.816;12.828;2022-12-18T21:06:49;11.43;;;10.53;;
30080;SDS011;16902;50.816;12.828;2022-12-18T21:12:02;10.20;;;9.40;;
30080;SDS011;16902;50.816;12.828;2022-12-18T21:17:22;11.33;;;10.53;;
30080;SDS011;16902;50.816;12.828;2022-12-18T21:22:27;10.73;;;9.90;;
30080;SDS011;16902;50.816;12.828;2022-12-18T21:27:28;11.57;;;10.70;;
30080;SDS011;16902;50.816;12.828;2022-12-18T21:32:30;10.80;;;9.90;;
30080;SDS011;16902;50.816;12.828;2022-12-18T21:37:33;11.20;;;10.37;;
30080;SDS011;16902;50.816;12.828;2022-12-18T21:42:35;10.57;;;9.87;;
30080;SDS011;16902;50.816;12.828;2022-12-18T21:47:55;10.93;;;10.17;;
30080;SDS011;16902;50.816;12.828;2022-12-18T21:52:57;9.97;;;9.37;;
30080;SDS011;16902;50.816;12.828;2022-12-18T21:57:59;11.02;;;10.32;;
30080;SDS011;16902;50.816;12.828;2022-12-18T22:03:00;11.10;;;10.33;;
30080;SDS011;16902;50.816;12.828;2022-12-18T22:08:19;11.07;;;10.27;;
30080;SDS011;16902;50.816;12.828;2022-12-18T22:13:21;10.60;;;9.93;;
30080;SDS011;16902;50.816;12.828;2022-12-18T22:18:22;10.80;;;9.90;;
30080;SDS011;16902;50.816;12.828;2022-12-18T22:23:24;10.52;;;9.82;;
30080;SDS011;16902;50.816;12.828;2022-12-18T22:28:25;10.67;;;9.97;;
30080;SDS011;16902;50.816;12.828;2022-12-18T22:33:46;9.87;;;9.27;;
30080;SDS011;16902;50.816;12.828;2022-12-18T22:38:47;10.32;;;9.68;;
30080;SDS011;16902;50.816;12.828;2022-12-18T22:43:49;10.45;;;9.65;;
30080;SDS011;16902;50.816;12.828;2022-12-18T22:48:50;10.38;;;9.68;;
30080;SDS011;16902;50.816;12.828;2022-12-18T22:53:52;9.82;;;9.30;;
30080;SDS011;16902;50.816;12.828;2022-12-18T22:58:55;9.57;;;8.87;;
30080;SDS011;16902;50.816;12.828;2022-12-18T23:03:59;10.82;;;9.93;;
30080;SDS011;16902;50.816;12.828;2022-12-18T23:09:01;10.30;;;9.70;;
30080;SDS011;16902;50.816;12.828;2022-12-18T23:14:02;9.75;;;9.05;;
30080;SDS011;16902;50.816;12.828;2022-12-18T23:19:04;9.93;;;9.33;;
30080;SDS011;16902;50.816;12.828;2022-12-18T23:24:06;9.10;;;8.40;;
30080;SDS011;16902;50.816;12.828;2022-12-18T23:29:08;9.23;;;8.73;;
30080;SDS011;16902;50.816;12.828;2022-12-18T23:34:10;9.97;;;9.37;;
30080;SDS011;16902;50.816;12.828;2022-12-18T23:39:14;9.53;;;8.93;;
30080;SDS011;16902;50.816;12.828;2022-12-18T23:44:30;9.37;;;8.87;;
30080;SDS011;16902;50.816;12.828;2022-12-18T23:49:31;9.77;;;9.17;;
30080;SDS011;16902;50.816;12.828;2022-12-18T23:54:33;11.03;;;10.13;;
30080;SDS011;16902;50.816;12.828;2022-12-18T23:59:35;10.57;;;9.55;;
